createdAt,value
2023-06-19T00:00:57.268Z,38.29
2023-06-19T00:01:57.285Z,38.29
2023-06-19T00:02:57.335Z,38.31
2023-06-19T00:03:57.427Z,38.33
2023-06-19T00:04:57.345Z,38.33
2023-06-19T00:05:57.399Z,38.37
2023-06-19T00:06:57.417Z,38.39
2023-06-19T00:07:57.447Z,38.41
2023-06-19T00:08:57.437Z,38.43
2023-06-19T00:09:57.470Z,38.43
2023-06-19T00:10:57.499Z,38.43
2023-06-19T00:11:57.539Z,38.44
2023-06-19T00:12:57.533Z,38.50
2023-06-19T00:13:57.566Z,38.52
2023-06-19T00:14:57.603Z,38.51
2023-06-19T00:15:57.622Z,38.52
2023-06-19T00:16:57.578Z,38.52
2023-06-19T00:17:57.575Z,38.54
2023-06-19T00:18:57.547Z,38.56
2023-06-19T00:19:57.528Z,38.54
2023-06-19T00:20:57.566Z,38.55
2023-06-19T00:21:57.541Z,38.56
2023-06-19T00:22:57.536Z,38.59
2023-06-19T00:23:57.608Z,38.59
2023-06-19T00:24:57.578Z,38.61
2023-06-19T00:25:57.581Z,38.62
2023-06-19T00:26:57.573Z,38.63
2023-06-19T00:27:57.579Z,38.68
2023-06-19T00:28:57.554Z,38.72
2023-06-19T00:29:57.549Z,38.69
2023-06-19T00:30:57.581Z,38.67
2023-06-19T00:31:57.599Z,38.71
2023-06-19T00:32:57.627Z,38.70
2023-06-19T00:33:57.632Z,38.72
2023-06-19T00:34:57.697Z,38.74
2023-06-19T00:35:57.662Z,38.72
2023-06-19T00:36:57.688Z,38.72
2023-06-19T00:37:57.726Z,38.75
2023-06-19T00:38:57.729Z,38.75
2023-06-19T00:39:57.726Z,38.76
2023-06-19T00:40:57.719Z,38.78
2023-06-19T00:41:57.700Z,38.80
2023-06-19T00:42:57.674Z,38.81
2023-06-19T00:43:57.640Z,38.82
2023-06-19T00:44:57.595Z,38.84
2023-06-19T00:45:57.603Z,38.86
2023-06-19T00:46:58.968Z,38.88
2023-06-19T00:47:57.528Z,38.94
2023-06-19T00:48:57.420Z,38.90
2023-06-19T00:49:57.379Z,38.92
2023-06-19T00:50:57.353Z,38.96
2023-06-19T00:51:57.306Z,38.95
2023-06-19T00:52:57.278Z,38.98
2023-06-19T00:53:57.272Z,39.01
2023-06-19T00:54:57.160Z,39.03
2023-06-19T00:55:57.113Z,39.02
2023-06-19T00:56:57.088Z,39.01
2023-06-19T00:57:57.022Z,39.01
2023-06-19T00:58:56.984Z,39.02
2023-06-19T00:59:56.935Z,39.07
2023-06-19T01:01:08.033Z,39.03
2023-06-19T01:01:57.955Z,39.12
2023-06-19T01:02:57.003Z,39.11
2023-06-19T01:03:56.969Z,39.10
2023-06-19T01:04:56.763Z,39.12
2023-06-19T01:05:56.711Z,39.10
2023-06-19T01:06:56.673Z,39.10
2023-06-19T01:07:56.615Z,39.15
2023-06-19T01:08:56.620Z,39.17
2023-06-19T01:09:56.602Z,39.19
2023-06-19T01:10:56.540Z,39.19
2023-06-19T01:11:56.528Z,39.23
2023-06-19T01:12:56.516Z,39.21
2023-06-19T01:13:56.497Z,39.24
2023-06-19T01:14:56.500Z,39.25
2023-06-19T01:15:56.546Z,39.22
2023-06-19T01:16:56.573Z,39.25
2023-06-19T01:17:56.549Z,39.25
2023-06-19T01:18:56.487Z,39.25
2023-06-19T01:19:56.509Z,39.24
2023-06-19T01:20:56.533Z,39.27
2023-06-19T01:21:56.517Z,39.28
2023-06-19T01:22:56.462Z,39.28
2023-06-19T01:23:56.524Z,39.29
2023-06-19T01:24:56.504Z,39.29
2023-06-19T01:25:56.422Z,39.27
2023-06-19T01:26:56.459Z,39.29
2023-06-19T01:27:56.437Z,39.32
2023-06-19T01:28:56.439Z,39.30
2023-06-19T01:29:56.425Z,39.33
2023-06-19T01:30:56.429Z,39.35
2023-06-19T01:31:56.450Z,39.33
2023-06-19T01:32:56.435Z,39.31
2023-06-19T01:33:56.319Z,39.36
2023-06-19T01:34:56.314Z,39.35
2023-06-19T01:35:56.296Z,39.37
2023-06-19T01:36:56.277Z,39.37
2023-06-19T01:37:56.264Z,39.35
2023-06-19T01:38:56.206Z,39.37
2023-06-19T01:39:56.197Z,39.39
2023-06-19T01:40:56.136Z,39.43
2023-06-19T01:41:56.153Z,39.41
2023-06-19T01:42:56.136Z,39.43
2023-06-19T01:43:56.079Z,39.42
2023-06-19T01:44:56.033Z,39.45
2023-06-19T01:45:56.056Z,39.43
2023-06-19T01:46:56.050Z,39.45
2023-06-19T01:47:56.014Z,39.45
2023-06-19T01:48:55.967Z,39.48
2023-06-19T01:49:55.975Z,39.49
2023-06-19T01:50:55.970Z,39.52
2023-06-19T01:51:55.956Z,39.58
2023-06-19T01:52:55.955Z,39.58
2023-06-19T01:53:55.969Z,39.58
2023-06-19T01:54:55.926Z,39.61
2023-06-19T01:55:55.954Z,39.58
2023-06-19T01:56:55.908Z,39.61
2023-06-19T01:57:55.951Z,39.60
2023-06-19T01:58:55.981Z,39.60
2023-06-19T01:59:55.962Z,39.64
2023-06-19T02:00:55.958Z,39.67
2023-06-19T02:01:55.972Z,39.71
2023-06-19T02:02:56.071Z,39.70
2023-06-19T02:03:56.033Z,39.67
2023-06-19T02:04:56.002Z,39.65
2023-06-19T02:05:56.058Z,39.65
2023-06-19T02:06:56.063Z,39.66
2023-06-19T02:07:56.029Z,39.64
2023-06-19T02:08:56.066Z,39.66
2023-06-19T02:09:56.018Z,39.67
2023-06-19T02:10:56.044Z,39.70
2023-06-19T02:11:56.056Z,39.70
2023-06-19T02:12:56.068Z,39.74
2023-06-19T02:13:56.070Z,39.78
2023-06-19T02:14:56.107Z,39.73
2023-06-19T02:15:56.166Z,39.78
2023-06-19T02:16:56.165Z,39.78
2023-06-19T02:17:57.020Z,39.79
2023-06-19T02:18:56.165Z,39.79
2023-06-19T02:19:56.179Z,39.74
2023-06-19T02:20:56.174Z,39.75
2023-06-19T02:21:56.184Z,39.78
2023-06-19T02:22:56.147Z,39.78
2023-06-19T02:23:56.163Z,39.75
2023-06-19T02:24:56.145Z,39.78
2023-06-19T02:25:56.145Z,39.78
2023-06-19T02:26:56.149Z,39.79
2023-06-19T02:27:56.163Z,39.86
2023-06-19T02:28:56.218Z,39.88
2023-06-19T02:29:56.185Z,39.86
2023-06-19T02:30:56.191Z,39.86
2023-06-19T02:31:56.245Z,39.86
2023-06-19T02:32:56.222Z,39.89
2023-06-19T02:33:56.240Z,39.87
2023-06-19T02:34:56.283Z,39.87
2023-06-19T02:35:56.261Z,39.88
2023-06-19T02:36:56.329Z,39.93
2023-06-19T02:37:56.270Z,39.92
2023-06-19T02:38:56.315Z,39.93
2023-06-19T02:39:56.323Z,39.94
2023-06-19T02:40:56.367Z,39.94
2023-06-19T02:41:56.413Z,39.93
2023-06-19T02:42:56.448Z,39.94
2023-06-19T02:43:56.496Z,39.94
2023-06-19T02:44:56.588Z,39.94
2023-06-19T02:45:56.570Z,40.01
2023-06-19T02:46:56.541Z,40.00
2023-06-19T02:47:56.594Z,40.01
2023-06-19T02:48:56.566Z,40.01
2023-06-19T02:49:56.643Z,40.07
2023-06-19T02:50:56.652Z,40.08
2023-06-19T02:51:56.696Z,40.07
2023-06-19T02:52:56.682Z,40.11
2023-06-19T02:53:56.722Z,40.10
2023-06-19T02:54:56.749Z,40.14
2023-06-19T02:55:58.397Z,40.16
2023-06-19T02:56:56.821Z,40.19
2023-06-19T02:57:56.772Z,40.17
2023-06-19T02:58:56.823Z,40.15
2023-06-19T02:59:56.785Z,40.14
2023-06-19T03:00:56.807Z,40.16
2023-06-19T03:01:56.838Z,40.17
2023-06-19T03:02:56.893Z,40.14
2023-06-19T03:03:56.794Z,40.16
2023-06-19T03:04:56.861Z,40.12
2023-06-19T03:05:56.862Z,40.13
2023-06-19T03:06:56.946Z,40.14
2023-06-19T03:07:56.897Z,40.14
2023-06-19T03:08:56.811Z,40.16
2023-06-19T03:09:56.863Z,40.17
2023-06-19T03:10:56.875Z,40.16
2023-06-19T03:11:56.930Z,40.22
2023-06-19T03:12:56.941Z,40.18
2023-06-19T03:13:56.956Z,40.18
2023-06-19T03:14:56.959Z,40.21
2023-06-19T03:15:56.997Z,40.23
2023-06-19T03:16:57.116Z,40.23
2023-06-19T03:17:57.138Z,40.21
2023-06-19T03:18:57.099Z,40.24
2023-06-19T03:19:57.132Z,40.27
2023-06-19T03:20:57.154Z,40.25
2023-06-19T03:21:57.167Z,40.25
2023-06-19T03:22:57.187Z,40.25
2023-06-19T03:23:57.217Z,40.30
2023-06-19T03:24:57.154Z,40.29
2023-06-19T03:25:57.180Z,40.29
2023-06-19T03:26:57.219Z,40.30
2023-06-19T03:27:57.171Z,40.31
2023-06-19T03:28:57.203Z,40.30
2023-06-19T03:29:57.213Z,40.35
2023-06-19T03:30:57.214Z,40.33
2023-06-19T03:31:57.207Z,40.32
2023-06-19T03:32:57.238Z,40.33
2023-06-19T03:33:57.260Z,40.36
2023-06-19T03:34:57.234Z,40.39
2023-06-19T03:35:57.262Z,40.38
2023-06-19T03:36:57.299Z,40.38
2023-06-19T03:37:57.256Z,40.37
2023-06-19T03:38:57.220Z,40.36
2023-06-19T03:39:57.233Z,40.37
2023-06-19T03:40:57.302Z,40.41
2023-06-19T03:41:57.269Z,40.43
2023-06-19T03:42:57.295Z,40.44
2023-06-19T03:43:57.243Z,40.42
2023-06-19T03:44:57.223Z,40.41
2023-06-19T03:45:57.242Z,40.40
2023-06-19T03:46:57.194Z,40.45
2023-06-19T03:47:57.234Z,40.45
2023-06-19T03:48:57.202Z,40.47
2023-06-19T03:50:02.058Z,40.48
2023-06-19T03:50:58.159Z,40.48
2023-06-19T03:51:57.116Z,40.48
2023-06-19T03:52:57.116Z,40.50
2023-06-19T03:53:57.031Z,40.50
2023-06-19T03:54:56.990Z,40.51
2023-06-19T03:55:56.979Z,40.51
2023-06-19T03:56:56.959Z,40.48
2023-06-19T03:57:57.915Z,40.51
2023-06-19T04:00:12.477Z,40.55
2023-06-19T04:01:12.460Z,40.55
2023-06-19T04:02:12.449Z,40.57
2023-06-19T04:03:12.540Z,40.57
2023-06-19T04:04:12.447Z,40.55
2023-06-19T04:05:12.396Z,40.54
2023-06-19T04:06:12.400Z,40.54
2023-06-19T04:07:12.360Z,40.51
2023-06-19T04:08:12.329Z,40.54
2023-06-19T04:09:12.358Z,40.59
2023-06-19T04:10:12.335Z,40.56
2023-06-19T04:11:12.313Z,40.53
2023-06-19T04:12:14.207Z,40.50
2023-06-19T04:13:12.266Z,40.58
2023-06-19T04:14:12.276Z,40.54
2023-06-19T04:15:12.256Z,40.52
2023-06-19T04:16:12.293Z,40.53
2023-06-19T04:17:12.235Z,40.51
2023-06-19T04:18:12.234Z,40.49
2023-06-19T04:19:12.166Z,40.50
2023-06-19T04:20:12.761Z,40.51
2023-06-19T04:21:12.131Z,40.53
2023-06-19T04:22:12.138Z,40.54
2023-06-19T04:23:12.137Z,40.58
2023-06-19T04:24:12.196Z,40.55
2023-06-19T04:25:12.277Z,40.53
2023-06-19T04:26:12.216Z,40.57
2023-06-19T04:27:12.234Z,40.58
2023-06-19T04:28:12.281Z,40.58
2023-06-19T04:29:12.293Z,40.56
2023-06-19T04:30:12.361Z,40.56
2023-06-19T04:31:12.398Z,40.58
2023-06-19T04:32:12.544Z,40.55
2023-06-19T04:33:12.511Z,40.61
2023-06-19T04:34:12.487Z,40.56
2023-06-19T04:35:12.580Z,40.54
2023-06-19T04:36:12.544Z,40.59
2023-06-19T04:37:12.615Z,40.57
2023-06-19T04:38:12.637Z,40.58
2023-06-19T04:39:12.650Z,40.55
2023-06-19T04:40:12.704Z,40.57
2023-06-19T04:41:13.683Z,40.57
2023-06-19T04:42:12.784Z,40.57
2023-06-19T04:43:12.830Z,40.57
2023-06-19T04:44:12.851Z,40.58
2023-06-19T04:45:12.893Z,40.55
2023-06-19T04:46:12.932Z,40.53
2023-06-19T04:47:12.948Z,40.53
2023-06-19T04:48:13.035Z,40.58
2023-06-19T04:49:13.002Z,40.59
2023-06-19T04:50:13.058Z,40.56
2023-06-19T04:51:13.099Z,40.54
2023-06-19T04:52:13.148Z,40.63
2023-06-19T04:53:13.158Z,40.78
2023-06-19T04:54:13.211Z,40.88
2023-06-19T04:55:13.226Z,40.86
2023-06-19T04:56:13.286Z,40.98
2023-06-19T04:57:13.307Z,41.11
2023-06-19T04:58:13.301Z,41.22
2023-06-19T04:59:13.324Z,41.21
2023-06-19T05:00:13.370Z,41.34
2023-06-19T05:01:13.454Z,41.42
2023-06-19T05:02:13.462Z,41.51
2023-06-19T05:03:13.477Z,41.52
2023-06-19T05:04:13.553Z,41.56
2023-06-19T05:05:13.566Z,41.66
2023-06-19T05:06:13.588Z,41.73
2023-06-19T05:07:13.593Z,41.83
2023-06-19T05:08:13.592Z,41.90
2023-06-19T05:09:13.677Z,41.96
2023-06-19T05:10:13.701Z,42.07
2023-06-19T05:11:13.737Z,42.12
2023-06-19T05:12:13.768Z,42.21
2023-06-19T05:13:13.870Z,42.22
2023-06-19T05:14:13.834Z,42.25
2023-06-19T05:15:13.896Z,42.43
2023-06-19T05:16:13.991Z,42.42
2023-06-19T05:17:14.002Z,42.53
2023-06-19T05:18:14.032Z,42.65
2023-06-19T05:19:14.067Z,42.75
2023-06-19T05:20:14.078Z,42.85
2023-06-19T05:21:14.115Z,43.01
2023-06-19T05:22:14.249Z,43.12
2023-06-19T05:23:14.195Z,43.20
2023-06-19T05:24:14.281Z,43.28
2023-06-19T05:25:14.318Z,43.29
2023-06-19T05:26:14.358Z,43.35
2023-06-19T05:27:14.401Z,43.50
2023-06-19T05:28:14.428Z,43.63
2023-06-19T05:29:14.504Z,43.62
2023-06-19T05:30:14.526Z,43.73
2023-06-19T05:31:14.600Z,43.73
2023-06-19T05:32:14.653Z,43.73
2023-06-19T05:33:14.693Z,43.77
2023-06-19T05:34:14.707Z,43.90
2023-06-19T05:35:16.401Z,44.02
2023-06-19T05:36:14.676Z,43.97
2023-06-19T05:37:14.754Z,43.90
2023-06-19T05:38:14.780Z,43.84
2023-06-19T05:39:14.804Z,43.98
2023-06-19T05:40:14.860Z,44.33
2023-06-19T05:41:14.984Z,44.10
2023-06-19T05:42:14.997Z,44.27
2023-06-19T05:43:15.054Z,43.87
2023-06-19T05:44:15.104Z,43.98
2023-06-19T05:45:15.120Z,44.12
2023-06-19T05:46:15.253Z,44.29
2023-06-19T05:47:15.228Z,44.59
2023-06-19T05:48:15.283Z,44.71
2023-06-19T05:49:15.351Z,44.97
2023-06-19T05:50:15.368Z,44.93
2023-06-19T05:51:15.452Z,45.29
2023-06-19T05:52:15.478Z,45.31
2023-06-19T05:53:15.906Z,45.73
2023-06-19T05:54:15.539Z,45.47
2023-06-19T05:55:15.590Z,45.84
2023-06-19T05:56:15.625Z,45.16
2023-06-19T05:57:15.716Z,44.86
2023-06-19T05:58:15.720Z,45.11
2023-06-19T05:59:15.801Z,44.90
2023-06-19T06:00:15.772Z,45.38
2023-06-19T06:01:15.920Z,45.49
2023-06-19T06:02:15.886Z,45.75
2023-06-19T06:03:16.031Z,45.93
2023-06-19T06:04:16.059Z,45.87
2023-06-19T06:05:16.018Z,46.06
2023-06-19T06:06:16.061Z,46.47
2023-06-19T06:07:16.122Z,46.42
2023-06-19T06:08:16.159Z,46.33
2023-06-19T06:09:16.184Z,46.59
2023-06-19T06:10:16.204Z,46.64
2023-06-19T06:11:16.269Z,46.70
2023-06-19T06:12:16.314Z,46.92
2023-06-19T06:13:16.375Z,46.95
2023-06-19T06:14:16.387Z,47.26
2023-06-19T06:15:16.512Z,47.22
2023-06-19T06:16:16.583Z,47.06
2023-06-19T06:17:16.549Z,46.65
2023-06-19T06:18:16.565Z,46.67
2023-06-19T06:19:16.602Z,46.43
2023-06-19T06:20:16.657Z,46.40
2023-06-19T06:21:16.716Z,47.08
2023-06-19T06:22:16.720Z,46.93
2023-06-19T06:23:16.764Z,46.44
2023-06-19T06:24:16.856Z,46.12
2023-06-19T06:25:16.822Z,46.10
2023-06-19T06:26:16.852Z,46.23
2023-06-19T06:27:16.862Z,46.24
2023-06-19T06:28:16.896Z,46.17
2023-06-19T06:29:16.943Z,46.00
2023-06-19T06:30:19.209Z,45.91
2023-06-19T06:31:16.948Z,45.83
2023-06-19T06:32:16.935Z,45.58
2023-06-19T06:33:16.895Z,45.60
2023-06-19T06:34:16.867Z,45.67
2023-06-19T06:35:16.863Z,45.66
2023-06-19T06:36:25.683Z,46.09
2023-06-19T06:37:17.856Z,46.14
2023-06-19T06:38:16.800Z,45.99
2023-06-19T06:39:16.792Z,45.56
2023-06-19T06:40:16.757Z,45.70
2023-06-19T06:41:16.745Z,45.99
2023-06-19T06:42:16.713Z,46.27
2023-06-19T06:43:16.726Z,46.19
2023-06-19T06:44:16.714Z,46.22
2023-06-19T06:45:16.686Z,46.50
2023-06-19T06:46:16.796Z,47.01
2023-06-19T06:47:16.670Z,47.24
2023-06-19T06:48:16.658Z,47.63
2023-06-19T06:49:16.729Z,47.60
2023-06-19T06:50:16.820Z,47.56
2023-06-19T06:51:16.877Z,47.35
2023-06-19T06:52:16.892Z,47.64
2023-06-19T06:53:16.903Z,47.45
2023-06-19T06:54:16.958Z,46.63
2023-06-19T06:55:17.011Z,46.20
2023-06-19T06:56:17.024Z,45.91
2023-06-19T06:57:18.621Z,45.90
2023-06-19T06:58:17.108Z,45.91
2023-06-19T06:59:17.160Z,45.91
2023-06-19T07:00:17.181Z,45.97
2023-06-19T07:01:17.298Z,45.95
2023-06-19T07:02:17.323Z,45.97
2023-06-19T07:03:17.456Z,46.02
2023-06-19T07:04:17.346Z,46.07
2023-06-19T07:05:17.477Z,46.11
2023-06-19T07:06:17.443Z,45.98
2023-06-19T07:07:17.481Z,46.01
2023-06-19T07:08:17.527Z,45.96
2023-06-19T07:09:17.584Z,45.89
2023-06-19T07:10:17.615Z,45.89
2023-06-19T07:11:17.607Z,45.87
2023-06-19T07:12:17.710Z,45.87
2023-06-19T07:13:17.720Z,45.88
2023-06-19T07:14:17.741Z,45.86
2023-06-19T07:15:17.805Z,45.84
2023-06-19T07:16:17.860Z,45.75
2023-06-19T07:17:19.716Z,45.74
2023-06-19T07:18:17.876Z,45.78
2023-06-19T07:19:17.868Z,45.87
2023-06-19T07:20:19.773Z,45.83
2023-06-19T07:21:17.790Z,45.83
2023-06-19T07:22:17.760Z,45.89
2023-06-19T07:23:17.742Z,45.93
2023-06-19T07:24:17.782Z,46.03
2023-06-19T07:25:17.725Z,46.11
2023-06-19T07:26:17.724Z,46.31
2023-06-19T07:27:17.736Z,46.14
2023-06-19T07:28:17.702Z,46.31
2023-06-19T07:29:17.660Z,46.35
2023-06-19T07:30:17.808Z,46.38
2023-06-19T07:31:17.788Z,46.30
2023-06-19T07:32:17.834Z,46.27
2023-06-19T07:33:17.884Z,46.32
2023-06-19T07:34:17.930Z,46.46
2023-06-19T07:35:17.968Z,46.41
2023-06-19T07:36:17.992Z,46.41
2023-06-19T07:37:18.053Z,46.38
2023-06-19T07:38:18.138Z,46.46
2023-06-19T07:39:18.164Z,46.55
2023-06-19T07:40:18.219Z,46.35
2023-06-19T07:41:18.253Z,47.27
2023-06-19T07:42:18.284Z,47.49
2023-06-19T07:43:18.310Z,47.19
2023-06-19T07:44:19.269Z,46.72
2023-06-19T07:45:18.369Z,46.79
2023-06-19T07:46:18.378Z,47.05
2023-06-19T07:47:18.353Z,47.91
2023-06-19T07:48:18.377Z,47.35
2023-06-19T07:49:18.445Z,47.19
2023-06-19T07:50:18.399Z,47.08
2023-06-19T07:51:18.399Z,46.87
2023-06-19T07:52:18.456Z,46.81
2023-06-19T07:53:18.457Z,46.85
2023-06-19T07:54:18.479Z,47.02
2023-06-19T07:55:18.501Z,47.61
2023-06-19T07:56:18.528Z,47.06
2023-06-19T07:57:18.543Z,47.04
2023-06-19T07:58:18.539Z,47.05
2023-06-19T07:59:18.546Z,46.98
2023-06-19T08:00:18.582Z,47.03
2023-06-19T08:01:18.563Z,46.98
2023-06-19T08:02:18.633Z,47.17
2023-06-19T08:03:18.672Z,47.17
2023-06-19T08:04:18.652Z,47.14
2023-06-19T08:05:18.718Z,47.66
2023-06-19T08:06:18.629Z,47.76
2023-06-19T08:07:18.659Z,47.77
2023-06-19T08:08:18.678Z,47.34
2023-06-19T08:09:18.678Z,47.31
2023-06-19T08:10:18.651Z,47.45
2023-06-19T08:11:18.680Z,47.03
2023-06-19T08:12:18.687Z,47.64
2023-06-19T08:13:18.701Z,47.78
2023-06-19T08:14:18.744Z,47.48
2023-06-19T08:15:18.720Z,47.46
2023-06-19T08:16:18.769Z,47.52
2023-06-19T08:17:19.106Z,47.28
2023-06-19T08:18:18.785Z,47.48
2023-06-19T08:19:18.841Z,47.63
2023-06-19T08:20:18.856Z,47.84
2023-06-19T08:21:18.877Z,47.77
2023-06-19T08:22:18.884Z,47.88
2023-06-19T08:23:18.884Z,47.97
2023-06-19T08:24:18.939Z,47.98
2023-06-19T08:25:19.018Z,47.85
2023-06-19T08:26:18.957Z,47.89
2023-06-19T08:27:18.981Z,47.87
2023-06-19T08:28:18.956Z,47.89
2023-06-19T08:29:19.029Z,47.65
2023-06-19T08:30:19.028Z,47.52
2023-06-19T08:31:19.031Z,47.74
2023-06-19T08:32:19.115Z,47.44
2023-06-19T08:33:19.095Z,46.73
2023-06-19T08:34:19.113Z,46.62
2023-06-19T08:35:19.137Z,46.53
2023-06-19T08:36:19.799Z,47.36
2023-06-19T08:37:19.151Z,47.58
2023-06-19T08:38:19.180Z,47.89
2023-06-19T08:39:19.203Z,48.67
2023-06-19T08:40:19.227Z,48.58
2023-06-19T08:41:19.292Z,49.17
2023-06-19T08:42:19.283Z,49.22
2023-06-19T08:43:19.247Z,49.26
2023-06-19T08:44:19.241Z,50.01
2023-06-19T08:45:19.244Z,50.33
2023-06-19T08:46:19.361Z,50.14
2023-06-19T08:47:19.282Z,50.13
2023-06-19T08:48:19.268Z,49.66
2023-06-19T08:49:19.251Z,50.27
2023-06-19T08:50:19.282Z,50.69
2023-06-19T08:51:19.271Z,50.48
2023-06-19T08:52:19.256Z,50.39
2023-06-19T08:53:19.276Z,50.26
2023-06-19T08:54:19.372Z,50.22
2023-06-19T08:55:19.261Z,50.21
2023-06-19T08:56:19.259Z,50.73
2023-06-19T08:57:19.437Z,51.21
2023-06-19T08:58:19.264Z,50.88
2023-06-19T08:59:19.263Z,50.93
2023-06-19T09:00:19.219Z,50.67
2023-06-19T09:01:19.233Z,50.17
2023-06-19T09:02:19.274Z,49.64
2023-06-19T09:03:19.267Z,49.40
2023-06-19T09:04:19.365Z,49.32
2023-06-19T09:05:19.198Z,49.18
2023-06-19T09:06:19.193Z,49.12
2023-06-19T09:07:19.287Z,49.17
2023-06-19T09:08:19.157Z,49.46
2023-06-19T09:09:19.138Z,49.37
2023-06-19T09:10:19.127Z,49.36
2023-06-19T09:11:19.125Z,49.41
2023-06-19T09:12:19.245Z,49.68
2023-06-19T09:13:19.078Z,49.71
2023-06-19T09:14:19.087Z,49.67
2023-06-19T09:15:19.096Z,49.59
2023-06-19T09:16:19.085Z,49.42
2023-06-19T09:17:19.091Z,49.47
2023-06-19T09:18:19.064Z,49.32
2023-06-19T09:19:19.013Z,49.27
2023-06-19T09:20:18.994Z,49.69
2023-06-19T09:21:19.060Z,49.71
2023-06-19T09:22:18.960Z,49.60
2023-06-19T09:23:18.962Z,49.57
2023-06-19T09:24:18.977Z,49.28
2023-06-19T09:25:18.919Z,49.39
2023-06-19T09:26:18.982Z,49.45
2023-06-19T09:27:18.927Z,49.79
2023-06-19T09:28:18.918Z,49.58
2023-06-19T09:29:21.262Z,49.67
2023-06-19T09:30:18.874Z,49.54
2023-06-19T09:31:18.838Z,49.54
2023-06-19T09:32:18.861Z,49.64
2023-06-19T09:33:18.944Z,49.34
2023-06-19T09:34:18.907Z,49.13
2023-06-19T09:35:18.774Z,49.05
2023-06-19T09:36:18.751Z,49.14
2023-06-19T09:37:18.705Z,49.29
2023-06-19T09:38:18.725Z,49.37
2023-06-19T09:39:18.719Z,49.45
2023-06-19T09:40:18.736Z,49.38
2023-06-19T09:41:18.664Z,50.18
2023-06-19T09:42:18.665Z,50.55
2023-06-19T09:43:18.634Z,51.59
2023-06-19T09:44:18.601Z,51.68
2023-06-19T09:45:18.597Z,51.99
2023-06-19T09:46:18.546Z,51.81
2023-06-19T09:47:18.587Z,51.36
2023-06-19T09:48:18.599Z,51.44
2023-06-19T09:49:18.515Z,52.08
2023-06-19T09:50:21.382Z,51.80
2023-06-19T09:51:18.444Z,51.62
2023-06-19T09:52:18.448Z,51.51
2023-06-19T09:53:18.531Z,51.29
2023-06-19T09:54:18.558Z,51.02
2023-06-19T09:55:18.396Z,51.53
2023-06-19T09:56:18.419Z,51.78
2023-06-19T09:57:18.345Z,51.74
2023-06-19T09:58:18.307Z,51.55
2023-06-19T09:59:18.304Z,51.75
2023-06-19T10:00:18.305Z,51.30
2023-06-19T10:01:18.537Z,51.15
2023-06-19T10:02:18.294Z,50.97
2023-06-19T10:03:18.462Z,51.25
2023-06-19T10:04:18.232Z,51.06
2023-06-19T10:05:18.248Z,51.39
2023-06-19T10:06:18.180Z,51.43
2023-06-19T10:07:18.155Z,51.38
2023-06-19T10:08:18.150Z,51.45
2023-06-19T10:09:18.113Z,51.31
2023-06-19T10:10:18.098Z,50.86
2023-06-19T10:11:18.093Z,51.07
2023-06-19T10:12:18.063Z,50.99
2023-06-19T10:13:18.092Z,50.98
2023-06-19T10:14:18.047Z,51.20
2023-06-19T10:15:18.113Z,51.24
2023-06-19T10:16:18.118Z,51.66
2023-06-19T10:17:18.023Z,51.49
2023-06-19T10:18:18.065Z,51.53
2023-06-19T10:19:17.963Z,52.04
2023-06-19T10:20:17.948Z,51.44
2023-06-19T10:21:17.923Z,51.05
2023-06-19T10:22:17.943Z,51.27
2023-06-19T10:23:20.436Z,51.02
2023-06-19T10:24:17.891Z,50.86
2023-06-19T10:25:17.851Z,50.87
2023-06-19T10:26:17.820Z,50.77
2023-06-19T10:27:17.830Z,50.83
2023-06-19T10:28:17.782Z,50.45
2023-06-19T10:29:17.762Z,50.54
2023-06-19T10:30:17.799Z,50.38
2023-06-19T10:31:17.733Z,50.51
2023-06-19T10:32:17.701Z,50.51
2023-06-19T10:33:17.705Z,50.40
2023-06-19T10:34:17.653Z,50.48
2023-06-19T10:35:17.676Z,50.44
2023-06-19T10:36:17.671Z,50.63
2023-06-19T10:37:17.610Z,50.94
2023-06-19T10:38:17.668Z,51.22
2023-06-19T10:39:17.570Z,51.21
2023-06-19T10:40:17.653Z,51.23
2023-06-19T10:41:17.569Z,51.20
2023-06-19T10:42:17.542Z,51.37
2023-06-19T10:43:17.520Z,51.16
2023-06-19T10:44:17.475Z,51.19
2023-06-19T10:45:17.501Z,51.52
2023-06-19T10:46:17.526Z,50.84
2023-06-19T10:47:17.446Z,50.63
2023-06-19T10:48:17.426Z,50.69
2023-06-19T10:49:17.386Z,50.44
2023-06-19T10:50:17.387Z,50.21
2023-06-19T10:51:17.363Z,50.12
2023-06-19T10:52:17.340Z,49.55
2023-06-19T10:53:17.323Z,49.15
2023-06-19T10:54:17.283Z,48.85
2023-06-19T10:55:17.237Z,49.12
2023-06-19T10:56:17.260Z,49.12
2023-06-19T10:57:17.202Z,49.51
2023-06-19T10:58:17.203Z,49.71
2023-06-19T10:59:17.191Z,50.29
2023-06-19T11:00:17.159Z,50.01
2023-06-19T11:01:17.136Z,49.59
2023-06-19T11:02:17.142Z,48.96
2023-06-19T11:03:17.209Z,49.33
2023-06-19T11:04:17.129Z,49.90
2023-06-19T11:05:17.131Z,49.74
2023-06-19T11:06:17.183Z,49.52
2023-06-19T11:07:17.211Z,49.08
2023-06-19T11:08:17.277Z,49.28
2023-06-19T11:09:17.281Z,49.15
2023-06-19T11:10:17.346Z,48.66
2023-06-19T11:11:17.370Z,49.54
2023-06-19T11:12:17.397Z,49.89
2023-06-19T11:13:17.461Z,49.91
2023-06-19T11:14:17.532Z,49.96
2023-06-19T11:15:17.548Z,49.88
2023-06-19T11:16:17.672Z,49.81
2023-06-19T11:17:17.799Z,49.73
2023-06-19T11:18:17.642Z,49.18
2023-06-19T11:19:17.711Z,48.84
2023-06-19T11:20:17.745Z,47.86
2023-06-19T11:21:17.804Z,47.12
2023-06-19T11:22:17.826Z,47.09
2023-06-19T11:23:17.826Z,48.27
2023-06-19T11:24:17.931Z,48.21
2023-06-19T11:25:17.883Z,47.17
2023-06-19T11:26:17.910Z,46.65
2023-06-19T11:27:17.964Z,46.29
2023-06-19T11:28:18.001Z,46.22
2023-06-19T11:29:18.048Z,46.06
2023-06-19T11:30:18.092Z,45.67
2023-06-19T11:31:18.165Z,46.42
2023-06-19T11:32:18.201Z,47.31
2023-06-19T11:33:18.157Z,48.26
2023-06-19T11:34:19.095Z,47.54
2023-06-19T11:35:18.211Z,48.10
2023-06-19T11:36:18.199Z,47.74
2023-06-19T11:37:18.225Z,48.28
2023-06-19T11:38:18.278Z,48.37
2023-06-19T11:39:18.310Z,47.51
2023-06-19T11:40:18.317Z,47.04
2023-06-19T11:41:18.358Z,46.57
2023-06-19T11:42:18.405Z,46.91
2023-06-19T11:43:18.429Z,46.90
2023-06-19T11:44:18.410Z,47.60
2023-06-19T11:45:18.455Z,47.52
2023-06-19T11:46:18.485Z,47.60
2023-06-19T11:47:18.477Z,46.66
2023-06-19T11:48:18.467Z,47.13
2023-06-19T11:49:18.516Z,46.83
2023-06-19T11:50:18.574Z,46.15
2023-06-19T11:51:18.631Z,46.79
2023-06-19T11:52:18.594Z,46.48
2023-06-19T11:53:18.932Z,46.91
2023-06-19T11:54:18.670Z,46.97
2023-06-19T11:55:18.719Z,46.27
2023-06-19T11:56:18.717Z,45.97
2023-06-19T11:57:18.739Z,45.41
2023-06-19T11:58:18.753Z,45.06
2023-06-19T11:59:18.810Z,45.06
2023-06-19T12:00:18.885Z,45.78
2023-06-19T12:01:18.853Z,46.01
2023-06-19T12:02:18.940Z,45.82
2023-06-19T12:03:19.039Z,46.66
2023-06-19T12:04:19.208Z,46.82
2023-06-19T12:05:18.982Z,47.17
2023-06-19T12:06:18.970Z,47.20
2023-06-19T12:07:19.028Z,47.34
2023-06-19T12:08:19.023Z,47.31
2023-06-19T12:09:19.057Z,47.31
2023-06-19T12:10:19.071Z,47.38
2023-06-19T12:11:19.099Z,47.44
2023-06-19T12:12:19.156Z,47.37
2023-06-19T12:13:19.199Z,47.30
2023-06-19T12:14:19.197Z,47.16
2023-06-19T12:15:19.211Z,47.36
2023-06-19T12:16:19.289Z,46.60
2023-06-19T12:17:19.279Z,47.05
2023-06-19T12:18:19.337Z,46.55
2023-06-19T12:19:21.022Z,46.59
2023-06-19T12:20:19.363Z,46.00
2023-06-19T12:21:34.342Z,45.15
2023-06-19T12:22:20.375Z,45.59
2023-06-19T12:23:19.352Z,45.91
2023-06-19T12:24:19.384Z,46.26
2023-06-19T12:25:19.868Z,46.39
2023-06-19T12:26:19.354Z,46.47
2023-06-19T12:27:19.310Z,46.46
2023-06-19T12:28:19.363Z,46.46
2023-06-19T12:29:19.346Z,46.68
2023-06-19T12:30:19.293Z,46.89
2023-06-19T12:31:19.390Z,46.73
2023-06-19T12:32:19.258Z,46.76
2023-06-19T12:33:19.220Z,46.97
2023-06-19T12:34:30.204Z,46.98
2023-06-19T12:35:20.212Z,46.80
2023-06-19T12:36:19.209Z,46.49
2023-06-19T12:37:19.149Z,46.97
2023-06-19T12:38:19.188Z,46.60
2023-06-19T12:39:19.135Z,46.87
2023-06-19T12:40:19.116Z,46.91
2023-06-19T12:41:19.112Z,46.84
2023-06-19T12:42:19.122Z,46.85
2023-06-19T12:43:19.078Z,46.88
2023-06-19T12:44:19.067Z,46.80
2023-06-19T12:45:19.071Z,46.71
2023-06-19T12:46:19.086Z,46.26
2023-06-19T12:47:19.037Z,46.09
2023-06-19T12:48:19.010Z,46.15
2023-06-19T12:49:18.998Z,46.05
2023-06-19T12:50:18.967Z,46.27
2023-06-19T12:51:18.963Z,46.52
2023-06-19T12:52:18.946Z,46.59
2023-06-19T12:53:18.973Z,46.56
2023-06-19T12:54:18.965Z,46.56